createdAt,value
2019-04-23T00:01:14.689Z,96714.45
2019-04-23T00:03:35.642Z,96716.02
2019-04-23T00:06:15.196Z,96711.39
2019-04-23T00:09:05.431Z,96705.40
2019-04-23T00:11:15.388Z,96704.42
2019-04-23T00:13:49.858Z,96712.86
2019-04-23T00:16:21.545Z,96710.95
2019-04-23T00:19:00.702Z,96703.77
2019-04-23T00:24:53.851Z,96705.63
2019-04-23T00:27:06.585Z,96702.95
2019-04-23T00:29:36.763Z,96697.96
2019-04-23T00:32:10.467Z,96699.61
2019-04-23T00:34:41.355Z,96699.56
2019-04-23T00:37:18.640Z,96698.92
2019-04-23T00:39:42.440Z,96692.59
2019-04-23T00:42:15.204Z,96703.07
2019-04-23T00:44:46.036Z,96704.97
2019-04-23T00:47:23.638Z,96708.35
2019-04-23T00:50:02.109Z,96696.83
2019-04-23T00:52:27.327Z,96696.78
2019-04-23T00:54:57.064Z,96691.14
2019-04-23T00:57:34.047Z,96688.12
2019-04-23T01:00:03.799Z,96683.66
2019-04-23T01:02:33.536Z,96685.69
2019-04-23T01:05:08.470Z,96695.81
2019-04-23T01:07:33.493Z,96699.63
2019-04-23T01:10:16.749Z,96702.96
2019-04-23T01:12:46.707Z,96698.28
2019-04-23T01:15:21.754Z,96701.04
2019-04-23T01:17:57.761Z,96699.73
2019-04-23T01:20:28.527Z,96698.98
2019-04-23T01:22:40.098Z,96691.66
2019-04-23T01:25:40.508Z,96694.59
2019-04-23T01:28:26.632Z,96696.10
2019-04-23T01:31:05.249Z,96689.98
2019-04-23T01:33:37.947Z,96693.42
2019-04-23T01:36:16.124Z,96698.58
2019-04-23T01:38:40.534Z,96700.41
2019-04-23T01:41:09.762Z,96700.47
2019-04-23T01:43:44.356Z,96703.59
2019-04-23T01:46:14.724Z,96699.98
2019-04-23T01:48:47.085Z,96693.80
2019-04-23T01:51:22.180Z,96701.67
2019-04-23T01:58:53.589Z,96694.04
2019-04-23T02:01:25.857Z,96701.95
2019-04-23T02:08:58.809Z,96692.01
2019-04-23T02:11:33.636Z,96683.07
2019-04-23T02:14:08.264Z,96677.81
2019-04-23T02:20:08.872Z,96679.42
2019-04-23T02:23:04.683Z,96686.20
2019-04-23T02:28:07.554Z,96687.16
2019-04-23T02:35:55.638Z,96677.95
2019-04-23T02:38:44.384Z,96673.69
2019-04-23T02:41:03.666Z,96675.41
2019-04-23T02:43:25.971Z,96678.09
2019-04-23T02:46:01.560Z,96669.39
2019-04-23T02:48:49.937Z,96669.05
2019-04-23T02:51:03.919Z,96666.30
2019-04-23T02:54:00.754Z,96662.96
2019-04-23T02:56:14.632Z,96659.18
2019-04-23T02:58:41.935Z,96656.70
2019-04-23T03:01:21.757Z,96652.85
2019-04-23T03:03:49.717Z,96654.57
2019-04-23T03:08:49.285Z,96655.08
2019-04-23T03:16:45.375Z,96664.27
2019-04-23T03:19:23.661Z,96668.97
2019-04-23T03:22:01.464Z,96663.19
2019-04-23T03:25:05.249Z,96666.12
2019-04-23T03:27:31.501Z,96660.16
2019-04-23T03:37:33.645Z,96662.20
2019-04-23T03:40:01.912Z,96663.25
2019-04-23T03:42:47.561Z,96662.13
2019-04-23T03:45:19.202Z,96661.63
2019-04-23T03:52:41.549Z,96664.73
2019-04-23T03:55:18.521Z,96666.23
2019-04-23T03:58:05.038Z,96667.89
2019-04-23T04:00:37.492Z,96669.81
2019-04-23T04:03:03.768Z,96668.39
2019-04-23T04:05:33.688Z,96659.31
2019-04-23T04:08:12.088Z,96665.61
2019-04-23T04:10:41.591Z,96668.28
2019-04-23T04:13:22.820Z,96663.30
2019-04-23T04:15:51.311Z,96675.87
2019-04-23T04:18:25.890Z,96673.27
2019-04-23T04:23:24.188Z,96668.11
2019-04-23T04:25:49.988Z,96669.42
2019-04-23T04:36:07.416Z,96658.49
2019-04-23T04:43:45.607Z,96659.16
2019-04-23T04:53:50.822Z,96654.31
2019-04-23T04:56:25.272Z,96662.02
2019-04-23T04:58:47.461Z,96663.66
2019-04-23T05:01:12.155Z,96668.00
2019-04-23T05:04:00.335Z,96662.63
2019-04-23T05:08:54.357Z,96671.58
2019-04-23T05:16:29.444Z,96676.98
2019-04-23T05:19:15.585Z,96677.50
2019-04-23T05:21:46.845Z,96681.08
2019-04-23T05:24:14.862Z,96682.20
2019-04-23T05:26:39.511Z,96682.48
2019-04-23T05:31:40.395Z,96681.61
2019-04-23T05:34:19.548Z,96678.97
2019-04-23T05:41:57.183Z,96680.30
2019-04-23T05:44:29.623Z,96684.72
2019-04-23T05:47:01.266Z,96682.28
2019-04-23T05:49:45.422Z,96688.44
2019-04-23T05:52:04.463Z,96692.20
2019-04-23T05:54:37.408Z,96694.40
2019-04-23T05:57:02.873Z,96693.87
2019-04-23T05:59:36.054Z,96699.11
2019-04-23T06:02:07.589Z,96708.45
2019-04-23T06:04:47.388Z,96710.23
2019-04-23T06:07:22.136Z,96707.92
2019-04-23T06:09:46.837Z,96714.59
2019-04-23T06:12:13.594Z,96713.80
2019-04-23T06:14:52.557Z,96701.80
2019-04-23T06:17:21.588Z,96705.03
2019-04-23T06:19:58.530Z,96703.84
2019-04-23T06:22:35.199Z,96709.59
2019-04-23T06:25:04.273Z,96709.80
2019-04-23T06:27:32.328Z,96711.20
2019-04-23T06:30:01.090Z,96707.87
2019-04-23T06:32:41.395Z,96706.07
2019-04-23T06:35:04.801Z,96703.98
2019-04-23T06:38:04.716Z,96706.44
2019-04-23T06:40:13.943Z,96702.75
2019-04-23T06:43:05.314Z,96696.68
2019-04-23T06:45:37.802Z,96698.80
2019-04-23T06:48:16.621Z,96693.86
2019-04-23T06:50:52.353Z,96695.19
2019-04-23T06:53:12.225Z,96690.86
2019-04-23T06:55:49.226Z,96693.32
2019-04-23T06:58:30.749Z,96686.59
2019-04-23T07:00:55.874Z,96678.62
2019-04-23T07:03:30.111Z,96670.13
2019-04-23T07:11:23.296Z,96668.04
2019-04-23T07:13:54.149Z,96664.50
2019-04-23T07:16:14.649Z,96658.89
2019-04-23T07:18:47.024Z,96656.47
2019-04-23T07:24:00.866Z,96646.30
2019-04-23T07:26:33.321Z,96642.63
2019-04-23T07:34:01.101Z,96636.66
2019-04-23T07:44:51.960Z,96652.94
2019-04-23T07:47:41.895Z,96664.06
2019-04-23T07:50:11.341Z,96649.05
2019-04-23T07:52:33.675Z,96632.47
2019-04-23T07:58:04.118Z,96648.73
2019-04-23T08:00:39.379Z,96654.09
2019-04-23T08:03:08.553Z,96657.52
2019-04-23T08:05:36.172Z,96646.38
2019-04-23T08:08:01.736Z,96666.42
2019-04-23T08:10:35.763Z,96681.86
2019-04-23T08:15:42.581Z,96687.31
2019-04-23T08:20:52.403Z,96691.88
2019-04-23T08:23:47.204Z,96699.45
2019-04-23T08:26:33.678Z,96696.02
2019-04-23T08:29:05.790Z,96700.56
2019-04-23T08:31:38.564Z,96711.16
2019-04-23T08:34:16.980Z,96702.34
2019-04-23T08:36:40.760Z,96709.81
2019-04-23T08:39:10.322Z,96708.37
2019-04-23T08:42:02.009Z,96700.56
2019-04-23T08:44:36.926Z,96694.21
2019-04-23T08:47:15.817Z,96698.50
2019-04-23T08:49:43.629Z,96694.23
2019-04-23T08:52:14.818Z,96695.22
2019-04-23T08:57:18.340Z,96703.42
2019-04-23T09:02:30.868Z,96709.86
2019-04-23T09:04:53.877Z,96707.46
2019-04-23T09:07:27.600Z,96700.40
2019-04-23T09:10:02.474Z,96706.09
2019-04-23T09:12:31.695Z,96704.77
2019-04-23T09:15:03.903Z,96698.92
2019-04-23T09:17:36.164Z,96698.95
2019-04-23T09:25:14.686Z,96674.86
2019-04-23T09:27:45.251Z,96678.84
2019-04-23T09:30:14.740Z,96666.38
2019-04-23T09:32:51.946Z,96670.84
2019-04-23T09:35:30.772Z,96679.92
2019-04-23T09:38:41.427Z,96676.97
2019-04-23T09:41:31.306Z,96685.13
2019-04-23T09:47:29.729Z,96693.37
2019-04-23T09:50:01.238Z,96693.39
2019-04-23T09:52:28.402Z,96693.67
2019-04-23T09:55:04.695Z,96692.80
2019-04-23T09:57:36.037Z,96692.97
2019-04-23T10:00:15.504Z,96693.31
2019-04-23T10:02:31.003Z,96701.33
2019-04-23T10:04:56.763Z,96702.29
2019-04-23T10:07:28.875Z,96701.13
2019-04-23T10:09:49.704Z,96695.25
2019-04-23T10:12:22.020Z,96703.62
2019-04-23T10:15:05.437Z,96706.88
2019-04-23T10:17:26.320Z,96707.84
2019-04-23T10:19:58.298Z,96710.48
2019-04-23T10:22:30.129Z,96712.12
2019-04-23T10:25:01.306Z,96710.47
2019-04-23T10:27:33.001Z,96709.59
2019-04-23T10:30:03.977Z,96709.20
2019-04-23T10:32:37.657Z,96712.56
2019-04-23T10:35:20.957Z,96712.98
2019-04-23T10:37:48.919Z,96712.52
2019-04-23T10:40:22.945Z,96704.44
2019-04-23T10:42:51.709Z,96718.05
2019-04-23T10:45:48.447Z,96710.83
2019-04-23T10:48:57.633Z,96710.87
2019-04-23T10:51:28.629Z,96710.63
2019-04-23T10:54:19.551Z,96704.22
2019-04-23T10:56:45.072Z,96705.38
2019-04-23T10:59:34.225Z,96702.39
2019-04-23T11:02:24.064Z,96703.19
2019-04-23T11:04:47.254Z,96699.34
2019-04-23T11:07:20.812Z,96704.30
2019-04-23T11:09:52.111Z,96709.04
2019-04-23T11:12:37.197Z,96703.48
2019-04-23T11:15:34.394Z,96705.23
2019-04-23T11:17:50.178Z,96702.88
2019-04-23T11:20:32.016Z,96701.36
2019-04-23T11:22:48.290Z,96694.15
2019-04-23T11:28:10.240Z,96701.07
2019-04-23T11:30:36.130Z,96698.19
2019-04-23T11:33:20.258Z,96693.42
2019-04-23T11:35:47.676Z,96695.55
2019-04-23T11:40:36.939Z,96691.89
2019-04-23T11:43:22.783Z,96692.36
2019-04-23T11:51:28.735Z,96687.09
2019-04-23T11:53:35.989Z,96695.55
2019-04-23T11:56:02.698Z,96688.41
2019-04-23T12:07:17.580Z,96690.23
2019-04-23T12:12:28.578Z,96693.83
2019-04-23T12:15:07.391Z,96688.86
2019-04-23T12:17:42.267Z,96691.19
2019-04-23T12:20:02.891Z,96694.06
2019-04-23T12:22:51.504Z,96693.25
2019-04-23T12:27:38.665Z,96693.80
2019-04-23T12:30:25.221Z,96691.26
2019-04-23T12:35:22.412Z,96690.15
2019-04-23T12:38:03.280Z,96681.77
2019-04-23T12:43:12.432Z,96694.70
2019-04-23T12:45:38.840Z,96685.87
2019-04-23T12:53:25.804Z,96684.52
2019-04-23T12:55:48.143Z,96667.42
2019-04-23T12:58:24.780Z,96675.50
2019-04-23T13:00:45.802Z,96678.22
2019-04-23T13:05:51.252Z,96667.98
2019-04-23T13:11:06.887Z,96657.27
2019-04-23T13:13:37.490Z,96658.34
2019-04-23T13:16:12.347Z,96663.17
2019-04-23T13:18:38.116Z,96662.00
2019-04-23T13:21:32.961Z,96665.48
2019-04-23T13:23:41.132Z,96657.96
2019-04-23T13:26:13.492Z,96653.95
2019-04-23T13:28:52.541Z,96651.62
2019-04-23T13:31:26.607Z,96654.56
2019-04-23T13:33:52.491Z,96656.75
2019-04-23T13:36:33.004Z,96654.78
2019-04-23T13:38:57.119Z,96645.95
2019-04-23T13:43:52.635Z,96638.59
2019-04-23T13:46:45.539Z,96635.55
2019-04-23T13:49:08.053Z,96635.84
2019-04-23T13:51:40.014Z,96631.20
2019-04-23T13:54:17.333Z,96632.27
2019-04-23T13:57:12.836Z,96625.02
2019-04-23T13:59:21.858Z,96627.53
2019-04-23T14:01:46.923Z,96625.22
2019-04-23T14:04:38.300Z,96623.43
2019-04-23T14:07:07.502Z,96615.09
2019-04-23T14:09:50.834Z,96613.30
2019-04-23T14:12:17.622Z,96616.76
2019-04-23T14:17:37.972Z,96624.16
2019-04-23T14:19:53.451Z,96619.58
2019-04-23T14:25:05.753Z,96617.20
2019-04-23T14:32:40.065Z,96615.11
2019-04-23T14:35:25.454Z,96615.40
2019-04-23T14:37:53.130Z,96615.59
2019-04-23T14:40:21.672Z,96605.95
2019-04-23T14:42:56.030Z,96605.87
2019-04-23T14:45:42.580Z,96603.98
2019-04-23T14:48:03.892Z,96606.76
2019-04-23T14:53:16.149Z,96602.90
2019-04-23T14:55:49.372Z,96607.09
2019-04-23T14:58:23.484Z,96597.90
2019-04-23T15:01:05.182Z,96596.11
2019-04-23T15:06:02.556Z,96598.33
2019-04-23T15:08:28.575Z,96597.72
2019-04-23T15:11:09.560Z,96600.63
2019-04-23T15:16:03.070Z,96588.71
2019-04-23T15:24:00.205Z,96595.38
2019-04-23T15:28:37.308Z,96589.20
2019-04-23T15:31:33.606Z,96587.25
2019-04-23T15:34:07.604Z,96580.08
2019-04-23T15:44:14.898Z,96583.69
2019-04-23T15:49:22.998Z,96585.87
2019-04-23T15:51:52.484Z,96586.27
2019-04-23T15:54:25.009Z,96577.55
2019-04-23T15:56:57.917Z,96577.55
2019-04-23T15:59:34.963Z,96574.88
2019-04-23T16:01:41.117Z,96579.53
2019-04-23T16:04:01.438Z,96577.59
2019-04-23T16:06:34.767Z,96567.22
2019-04-23T16:09:21.066Z,96567.29
2019-04-23T16:12:01.072Z,96568.80
2019-04-23T16:14:52.968Z,96567.83
2019-04-23T16:17:13.786Z,96556.70
2019-04-23T16:25:09.859Z,96554.45
2019-04-23T16:27:40.177Z,96555.83
2019-04-23T16:35:46.207Z,96555.13
2019-04-23T16:38:26.773Z,96556.14
2019-04-23T16:40:50.536Z,96558.27
2019-04-23T16:43:13.343Z,96550.02
2019-04-23T16:48:36.675Z,96552.30
2019-04-23T16:51:12.219Z,96562.22
2019-04-23T16:53:27.537Z,96562.27
2019-04-23T16:56:04.226Z,96562.94
2019-04-23T17:01:03.385Z,96565.17
2019-04-23T17:03:31.483Z,96561.34
2019-04-23T17:06:15.871Z,96562.47
2019-04-23T17:08:53.953Z,96557.73
2019-04-23T17:11:15.262Z,96555.91
2019-04-23T17:14:02.680Z,96560.92
2019-04-23T17:16:16.759Z,96558.67
2019-04-23T17:18:48.935Z,96552.98
2019-04-23T17:21:16.912Z,96548.34
2019-04-23T17:26:25.617Z,96552.30
2019-04-23T17:29:03.983Z,96548.27
2019-04-23T17:36:44.341Z,96552.16
2019-04-23T17:39:18.079Z,96549.98
2019-04-23T17:42:22.540Z,96548.20
2019-04-23T17:45:02.503Z,96547.83
2019-04-23T17:47:35.244Z,96545.00
2019-04-23T17:52:41.990Z,96543.51
2019-04-23T17:55:18.270Z,96547.42
2019-04-23T17:57:43.713Z,96550.77
2019-04-23T18:05:33.222Z,96550.45
2019-04-23T18:08:06.708Z,96545.12
2019-04-23T18:10:37.074Z,96545.57
2019-04-23T18:15:17.666Z,96556.94
2019-04-23T18:18:02.481Z,96557.27
2019-04-23T18:20:58.064Z,96560.12
2019-04-23T18:23:22.249Z,96565.65
2019-04-23T18:26:04.095Z,96561.08
2019-04-23T18:28:36.721Z,96561.70
2019-04-23T18:31:13.030Z,96565.31
2019-04-23T18:36:26.292Z,96569.25
2019-04-23T18:41:41.637Z,96573.04
2019-04-23T18:44:16.101Z,96572.23
2019-04-23T18:46:43.795Z,96581.54
2019-04-23T18:49:11.370Z,96581.54
2019-04-23T18:51:55.063Z,96579.22
2019-04-23T18:54:14.859Z,96580.34
2019-04-23T18:57:02.042Z,96586.19
2019-04-23T18:59:31.291Z,96592.86
2019-04-23T19:05:15.351Z,96606.48
2019-04-23T19:08:07.611Z,96609.34
2019-04-23T19:11:05.409Z,96615.84
2019-04-23T19:13:24.781Z,96615.47
2019-04-23T19:15:45.837Z,96620.73
2019-04-23T19:18:35.277Z,96621.54
2019-04-23T19:21:09.218Z,96631.14
2019-04-23T19:26:02.173Z,96635.39
2019-04-23T19:31:27.574Z,96638.63
2019-04-23T19:34:29.781Z,96641.66
2019-04-23T19:36:59.218Z,96638.20
2019-04-23T19:44:32.788Z,96645.30
2019-04-23T19:47:17.070Z,96644.18
2019-04-23T19:52:20.271Z,96651.04
2019-04-23T19:57:17.840Z,96654.87
2019-04-23T20:04:55.458Z,96672.80
2019-04-23T20:12:38.743Z,96668.91
2019-04-23T20:14:56.523Z,96664.27
2019-04-23T20:20:06.206Z,96674.98
2019-04-23T20:22:43.479Z,96673.31
2019-04-23T20:28:05.732Z,96681.55
2019-04-23T20:35:50.364Z,96683.15
2019-04-23T20:40:53.906Z,96683.62
2019-04-23T20:43:22.845Z,96686.57
2019-04-23T20:45:58.831Z,96682.00
2019-04-23T20:48:31.066Z,96687.66
2019-04-23T20:51:01.402Z,96693.40
2019-04-23T20:53:40.398Z,96697.20
2019-04-23T20:56:07.380Z,96694.43
2019-04-23T20:58:47.955Z,96698.22
2019-04-23T21:03:56.794Z,96696.76
2019-04-23T21:06:30.082Z,96694.31
2019-04-23T21:11:40.419Z,96702.34
2019-04-23T21:19:10.118Z,96713.19
2019-04-23T21:22:06.030Z,96719.01
2019-04-23T21:24:43.049Z,96719.53
2019-04-23T21:27:21.745Z,96713.56
2019-04-23T21:30:00.670Z,96719.97
2019-04-23T21:32:35.539Z,96720.80
2019-04-23T21:35:02.710Z,96720.92
2019-04-23T21:38:48.427Z,96724.37
2019-04-23T21:40:57.738Z,96720.66
2019-04-23T21:43:16.456Z,96726.08
2019-04-23T21:45:54.497Z,96724.20
2019-04-23T21:48:15.657Z,96729.13
2019-04-23T21:50:49.061Z,96725.11
2019-04-23T21:53:18.755Z,96729.56
2019-04-23T21:58:41.277Z,96740.22
2019-04-23T22:01:06.030Z,96742.12
2019-04-23T22:04:01.681Z,96746.77
2019-04-23T22:06:17.598Z,96753.87
2019-04-23T22:08:43.596Z,96746.20
2019-04-23T22:11:36.267Z,96754.66
2019-04-23T22:14:02.381Z,96757.34
2019-04-23T22:19:04.272Z,96762.52
2019-04-23T22:24:07.102Z,96765.32
2019-04-23T22:26:28.420Z,96768.03
2019-04-23T22:31:38.761Z,96769.45
2019-04-23T22:34:08.962Z,96767.59
2019-04-23T22:36:57.427Z,96767.59
2019-04-23T22:41:46.216Z,96768.78
2019-04-23T22:44:10.847Z,96768.78
2019-04-23T22:46:52.443Z,96774.84
2019-04-23T22:52:06.420Z,96777.37
2019-04-23T22:54:23.345Z,96781.62
2019-04-23T22:57:05.015Z,96784.52
2019-04-23T22:59:48.894Z,96791.08
2019-04-23T23:02:36.688Z,96799.69
2019-04-23T23:05:09.980Z,96796.71
2019-04-23T23:07:39.711Z,96797.41
2019-04-23T23:10:06.879Z,96804.47
2019-04-23T23:17:53.196Z,96813.73
2019-04-23T23:20:20.861Z,96819.05
2019-04-23T23:25:20.553Z,96821.56
2019-04-23T23:30:19.726Z,96823.79
2019-04-23T23:32:56.727Z,96830.69
2019-04-23T23:35:31.232Z,96837.77
2019-04-23T23:38:02.551Z,96831.08
2019-04-23T23:40:25.495Z,96843.13
2019-04-23T23:45:36.796Z,96850.16
2019-04-23T23:48:08.963Z,96847.17
2019-04-23T23:50:45.178Z,96852.52
2019-04-23T23:53:15.596Z,96854.85
2019-04-23T23:55:51.890Z,96854.69
